Time;durP1;ratioP1;P1;durP2;ratioP2;P2;SDS_P1;SDS_P2;PMS_P1;PMS_P2;Temp;Humidity;BMP_temperature;BMP_pressure;BME280_temperature;BME280_humidity;BME280_pressure;Samples;Min_cycle;Max_cycle;Signal;HPM_P1;HPM_P2
2022/05/05 00:00:33;;;;;;;4.45;2.58;;;11.90;99.90;;;;;;6155906;23;20073;-84
2022/05/05 00:02:58;;;;;;;5.28;2.72;;;11.90;99.90;;;;;;6153990;23;20077;-85
2022/05/05 00:05:24;;;;;;;4.63;2.58;;;11.90;99.90;;;;;;6154543;23;20435;-84
2022/05/05 00:07:49;;;;;;;5.78;3.10;;;12.00;99.90;;;;;;6152502;23;20092;-84
2022/05/05 00:15:44;;;;;;;4.57;2.22;;;11.90;99.90;;;;;;6153447;23;20017;-84
2022/05/05 00:18:11;;;;;;;6.28;3.00;;;11.90;99.90;;;;;;6151671;23;20013;-85
2022/05/05 00:20:36;;;;;;;6.05;2.85;;;11.80;99.90;;;;;;6153138;23;20436;-84
2022/05/05 00:23:02;;;;;;;5.63;3.45;;;11.90;99.90;;;;;;6151291;23;20021;-85
2022/05/05 00:25:28;;;;;;;6.53;3.78;;;11.80;99.90;;;;;;6149942;23;20060;-84
2022/05/05 00:27:53;;;;;;;5.90;3.20;;;11.80;99.90;;;;;;6152685;23;19997;-84
2022/05/05 00:30:19;;;;;;;6.47;3.75;;;11.80;99.90;;;;;;6152461;23;20005;-85
2022/05/05 00:32:45;;;;;;;4.80;3.25;;;11.80;99.90;;;;;;6150771;23;20025;-85
2022/05/05 00:35:10;;;;;;;6.28;3.33;;;11.80;99.90;;;;;;6176179;23;20056;-84
2022/05/05 00:37:36;;;;;;;6.95;3.55;;;11.80;99.90;;;;;;6152199;23;20452;-84
2022/05/05 00:40:03;;;;;;;5.30;2.83;;;11.80;99.90;;;;;;6176146;23;20002;-84
2022/05/05 00:42:29;;;;;;;5.22;3.03;;;11.80;99.90;;;;;;6150203;23;20008;-84
2022/05/05 00:44:55;;;;;;;7.22;3.20;;;11.80;99.90;;;;;;6151357;23;20001;-84
2022/05/05 00:47:22;;;;;;;5.60;3.25;;;11.80;99.90;;;;;;6152837;23;20025;-84
2022/05/05 00:49:49;;;;;;;7.28;3.67;;;11.80;99.90;;;;;;6153328;23;20048;-84
2022/05/05 00:52:15;;;;;;;6.10;3.40;;;11.90;99.90;;;;;;6175954;23;20516;-85
2022/05/05 00:54:40;;;;;;;5.40;3.03;;;11.80;99.90;;;;;;6153155;23;20029;-84
2022/05/05 00:57:08;;;;;;;7.07;3.53;;;11.80;99.90;;;;;;6152706;23;20002;-84
2022/05/05 00:59:35;;;;;;;6.68;3.58;;;11.70;99.90;;;;;;6176617;23;20100;-85
2022/05/05 01:02:02;;;;;;;6.13;3.70;;;11.70;99.90;;;;;;6151765;23;20009;-85
2022/05/05 01:04:31;;;;;;;5.88;3.05;;;11.70;99.90;;;;;;6153945;23;20010;-85
2022/05/05 01:06:59;;;;;;;6.15;3.28;;;11.60;99.90;;;;;;6151962;23;20152;-84
2022/05/05 01:09:25;;;;;;;4.72;2.97;;;11.60;99.90;;;;;;6155228;23;20001;-84
2022/05/05 01:11:51;;;;;;;6.80;3.15;;;11.60;99.90;;;;;;6154209;23;20072;-84
2022/05/05 01:14:16;;;;;;;6.38;3.22;;;11.60;99.90;;;;;;6153331;23;20096;-85
2022/05/05 01:16:43;;;;;;;7.85;2.67;;;11.60;99.90;;;;;;6152588;23;20004;-85
2022/05/05 01:19:08;;;;;;;5.35;3.10;;;11.50;99.90;;;;;;6152798;23;20005;-85
2022/05/05 01:21:34;;;;;;;5.70;3.08;;;11.60;99.90;;;;;;6177496;23;20488;-84
2022/05/05 01:23:59;;;;;;;8.18;3.15;;;11.60;99.90;;;;;;6154635;23;20028;-85
2022/05/05 01:29:11;;;;;;;5.93;3.40;;;11.60;99.90;;;;;;6154892;23;20012;-85
2022/05/05 01:31:38;;;;;;;5.13;2.67;;;11.60;99.90;;;;;;6159858;23;20095;-85
2022/05/05 01:34:04;;;;;;;4.85;2.60;;;11.60;99.90;;;;;;6157085;23;20001;-84
2022/05/05 01:36:30;;;;;;;5.30;2.70;;;11.60;99.90;;;;;;6182587;23;20031;-84
2022/05/05 01:38:56;;;;;;;4.35;2.17;;;11.60;99.90;;;;;;6194103;23;19997;-84
2022/05/05 01:41:21;;;;;;;4.50;2.40;;;11.60;99.90;;;;;;6200553;23;20009;-84
2022/05/05 01:43:47;;;;;;;4.45;2.40;;;11.60;99.90;;;;;;6207212;23;20009;-84
2022/05/05 01:46:14;;;;;;;4.32;2.08;;;11.60;99.90;;;;;;6180813;23;20005;-84
2022/05/05 01:48:40;;;;;;;4.88;2.70;;;11.70;99.90;;;;;;6206955;23;20013;-84
2022/05/05 01:51:05;;;;;;;4.82;2.10;;;11.60;99.90;;;;;;6198401;23;20040;-84
2022/05/05 01:53:38;;;;;;;4.45;2.30;;;11.70;99.90;;;;;;6157917;23;20664;-85
2022/05/05 01:56:11;;;;;;;4.18;2.15;;;11.70;99.90;;;;;;6183870;23;20012;-84
2022/05/05 01:58:38;;;;;;;4.50;2.35;;;11.80;99.90;;;;;;6157805;23;20012;-84
2022/05/05 02:01:04;;;;;;;4.28;2.33;;;11.70;99.90;;;;;;6157652;23;20092;-84
2022/05/05 02:03:30;;;;;;;5.63;2.90;;;11.70;99.90;;;;;;6184450;23;20012;-84
2022/05/05 02:05:55;;;;;;;6.18;3.22;;;11.60;99.90;;;;;;6157491;23;20040;-84
2022/05/05 02:08:21;;;;;;;4.50;2.58;;;11.60;99.90;;;;;;6183870;23;20004;-84
2022/05/05 02:10:47;;;;;;;4.50;2.60;;;11.60;99.90;;;;;;6157028;23;20036;-84
2022/05/05 02:13:12;;;;;;;5.13;3.17;;;11.50;99.90;;;;;;6184547;23;20008;-84
2022/05/05 02:15:38;;;;;;;5.28;2.95;;;11.50;99.90;;;;;;6181387;23;20028;-85
2022/05/05 02:18:12;;;;;;;4.97;2.63;;;11.50;99.90;;;;;;6156727;23;19997;-84
2022/05/05 02:20:39;;;;;;;5.10;2.53;;;11.40;99.90;;;;;;6183572;23;20136;-83
2022/05/05 02:23:06;;;;;;;4.82;2.72;;;11.40;99.90;;;;;;6157305;23;20001;-84
2022/05/05 02:25:32;;;;;;;5.40;3.13;;;11.40;99.90;;;;;;6156461;23;20448;-84
2022/05/05 02:27:57;;;;;;;5.53;2.92;;;11.40;99.90;;;;;;6181807;23;20096;-84
2022/05/05 02:30:25;;;;;;;5.72;2.97;;;11.40;99.90;;;;;;6183448;23;20001;-84
2022/05/05 02:32:50;;;;;;;5.22;2.70;;;11.40;99.90;;;;;;6156448;23;20487;-85
2022/05/05 02:35:18;;;;;;;6.72;3.05;;;11.40;99.90;;;;;;6181767;23;20001;-85
2022/05/05 02:40:27;;;;;;;7.55;2.92;;;11.40;99.90;;;;;;6183472;23;20374;-85
2022/05/05 02:42:56;;;;;;;5.55;3.00;;;11.40;99.90;;;;;;6157261;23;20004;-85
2022/05/05 02:45:23;;;;;;;6.03;3.25;;;11.50;99.90;;;;;;6183714;23;20005;-85
2022/05/05 02:47:49;;;;;;;7.68;3.38;;;11.50;99.90;;;;;;6182516;23;20387;-84
2022/05/05 02:50:16;;;;;;;5.57;2.88;;;11.50;99.90;;;;;;6183562;23;20516;-84
2022/05/05 02:52:41;;;;;;;5.43;3.15;;;11.50;99.90;;;;;;6183412;23;20004;-85
2022/05/05 02:55:08;;;;;;;6.53;3.00;;;11.40;99.90;;;;;;6156781;23;20009;-84
2022/05/05 02:57:34;;;;;;;5.80;2.80;;;11.40;99.90;;;;;;6156321;23;20627;-85
2022/05/05 02:59:59;;;;;;;5.47;2.72;;;11.40;99.90;;;;;;6181615;23;20012;-84
2022/05/05 03:02:25;;;;;;;4.78;2.83;;;11.30;99.90;;;;;;6156630;23;20036;-85
2022/05/05 03:04:51;;;;;;;7.78;2.95;;;11.40;99.90;;;;;;6183390;23;20024;-86
2022/05/05 03:07:17;;;;;;;5.55;2.63;;;11.30;99.90;;;;;;6182629;23;20007;-84
2022/05/05 03:09:43;;;;;;;5.75;3.10;;;11.30;99.90;;;;;;6183733;23;19993;-84
2022/05/05 03:12:10;;;;;;;3.75;2.50;;;11.20;99.90;;;;;;6155977;23;20011;-85
2022/05/05 03:14:36;;;;;;;5.50;2.60;;;11.20;99.90;;;;;;6157560;23;20007;-84
2022/05/05 03:17:02;;;;;;;6.38;2.85;;;11.10;99.90;;;;;;6156664;23;20008;-85
2022/05/05 03:19:28;;;;;;;5.95;3.25;;;11.10;99.90;;;;;;6183430;23;20039;-85
2022/05/05 03:21:54;;;;;;;6.22;3.15;;;11.00;99.90;;;;;;6158451;23;20015;-84
2022/05/05 03:24:20;;;;;;;7.53;2.92;;;11.00;99.90;;;;;;6159839;23;20005;-84
2022/05/05 03:26:45;;;;;;;6.05;3.20;;;11.10;99.90;;;;;;6157366;23;20005;-84
2022/05/05 03:29:11;;;;;;;5.82;3.33;;;11.00;99.90;;;;;;6181926;23;20020;-84
2022/05/05 03:31:36;;;;;;;6.22;3.40;;;11.00;99.90;;;;;;6182731;23;20380;-85
2022/05/05 03:34:03;;;;;;;5.60;3.60;;;11.00;99.90;;;;;;6156802;23;20013;-85
2022/05/05 03:36:30;;;;;;;5.60;2.95;;;11.00;99.90;;;;;;6155143;23;20005;-84
2022/05/05 03:38:55;;;;;;;5.28;3.22;;;11.00;99.90;;;;;;6157400;23;20067;-84
2022/05/05 03:41:22;;;;;;;5.60;3.22;;;10.90;99.90;;;;;;6156589;23;20091;-85
2022/05/05 03:43:47;;;;;;;7.35;3.33;;;11.00;99.90;;;;;;6183859;23;20454;-84
2022/05/05 03:46:13;;;;;;;6.78;3.38;;;11.00;99.90;;;;;;6183315;23;20080;-84
2022/05/05 03:48:39;;;;;;;6.20;3.20;;;11.00;99.90;;;;;;6157340;23;20016;-84
2022/05/05 03:51:04;;;;;;;6.68;3.35;;;11.00;99.90;;;;;;6184165;23;20109;-84
2022/05/05 03:53:30;;;;;;;5.38;3.30;;;11.00;99.90;;;;;;6181090;23;20016;-84
2022/05/05 03:55:56;;;;;;;6.10;3.58;;;11.00;99.90;;;;;;6182329;23;20032;-84
2022/05/05 03:58:22;;;;;;;6.88;3.47;;;11.00;99.90;;;;;;6182272;23;20005;-85
2022/05/05 04:00:47;;;;;;;6.03;3.85;;;11.00;99.90;;;;;;6185826;23;20032;-85
2022/05/05 04:03:31;;;;;;;6.93;3.78;;;11.00;99.90;;;;;;6185357;23;20005;-85
2022/05/05 04:05:58;;;;;;;7.80;3.85;;;11.00;99.90;;;;;;6182547;23;20009;-83
2022/05/05 04:08:25;;;;;;;6.47;3.60;;;11.00;99.90;;;;;;6185273;23;20012;-84
2022/05/05 04:10:51;;;;;;;6.15;3.38;;;11.00;99.90;;;;;;6185069;23;20063;-84
2022/05/05 04:13:16;;;;;;;7.63;3.83;;;11.10;99.90;;;;;;6180586;23;20005;-84
2022/05/05 04:15:42;;;;;;;6.35;3.63;;;11.10;99.90;;;;;;6155550;23;20009;-84
2022/05/05 04:18:07;;;;;;;7.35;4.40;;;11.10;99.90;;;;;;6179379;23;20005;-84
2022/05/05 04:20:33;;;;;;;7.38;4.25;;;11.10;99.90;;;;;;6182453;23;20085;-84
2022/05/05 04:22:58;;;;;;;8.13;3.97;;;11.10;99.90;;;;;;6181161;23;20008;-85
2022/05/05 04:25:24;;;;;;;7.68;4.82;;;11.10;99.90;;;;;;6155415;23;20088;-84
2022/05/05 04:27:50;;;;;;;9.93;5.60;;;11.10;99.90;;;;;;6181386;23;20660;-85
2022/05/05 04:30:16;;;;;;;8.90;4.60;;;11.10;99.90;;;;;;6181136;23;20083;-84
2022/05/05 04:32:43;;;;;;;9.00;5.28;;;11.10;99.90;;;;;;6160461;23;20013;-89
2022/05/05 04:35:09;;;;;;;7.07;4.50;;;11.10;99.90;;;;;;6189009;23;20108;-89
2022/05/05 04:37:35;;;;;;;6.78;4.30;;;11.10;99.90;;;;;;6161348;23;20339;-88
2022/05/05 04:40:01;;;;;;;9.25;4.57;;;11.10;99.90;;;;;;6163814;23;20008;-90
2022/05/05 04:42:27;;;;;;;9.93;4.80;;;11.20;99.90;;;;;;6165301;23;20128;-89
2022/05/05 04:44:53;;;;;;;8.07;4.45;;;11.20;99.90;;;;;;6164631;23;20005;-90
2022/05/05 04:47:25;;;;;;;8.30;4.68;;;11.20;99.90;;;;;;6163351;23;20486;-88
2022/05/05 04:49:57;;;;;;;8.43;4.43;;;11.30;99.90;;;;;;6190267;23;20063;-90
2022/05/05 04:52:32;;;;;;;6.10;4.18;;;11.30;99.90;;;;;;6190598;23;20030;-88
2022/05/05 04:54:59;;;;;;;8.98;4.45;;;11.30;99.90;;;;;;6163641;23;20083;-89
2022/05/05 04:57:29;;;;;;;7.68;4.25;;;11.40;99.90;;;;;;6164480;23;20765;-89
2022/05/05 04:59:59;;;;;;;8.48;4.15;;;11.40;99.90;;;;;;6163102;23;20479;-89
2022/05/05 05:02:25;;;;;;;7.78;4.13;;;11.40;99.90;;;;;;6163938;23;20412;-89
2022/05/05 05:04:50;;;;;;;8.85;4.47;;;11.40;99.90;;;;;;6163482;23;20012;-90
2022/05/05 05:07:17;;;;;;;7.40;3.75;;;11.50;99.90;;;;;;6163257;23;20025;-89
2022/05/05 05:09:43;;;;;;;6.03;3.70;;;11.50;99.90;;;;;;6161300;23;20016;-90
2022/05/05 05:12:11;;;;;;;6.60;3.70;;;11.60;99.90;;;;;;6161982;23;20015;-90
2022/05/05 05:14:42;;;;;;;6.50;3.88;;;11.60;99.90;;;;;;6163546;23;20001;-90
2022/05/05 05:17:11;;;;;;;6.10;3.70;;;11.60;99.90;;;;;;6163781;23;20048;-90
2022/05/05 05:19:57;;;;;;;8.65;4.35;;;11.70;99.90;;;;;;6161179;23;20004;-88
2022/05/05 05:22:25;;;;;;;8.77;3.53;;;11.70;99.90;;;;;;6156868;23;20387;-87
2022/05/05 05:24:54;;;;;;;6.65;3.38;;;11.80;99.90;;;;;;6162538;23;20005;-88
2022/05/05 05:27:22;;;;;;;5.40;3.20;;;11.70;99.90;;;;;;6165829;23;20091;-91
2022/05/05 05:29:51;;;;;;;8.20;4.40;;;11.70;99.90;;;;;;6164749;23;20024;-89
2022/05/05 05:32:17;;;;;;;7.00;3.83;;;11.60;99.90;;;;;;6164864;23;20088;-90
2022/05/05 05:34:47;;;;;;;7.20;3.97;;;11.70;99.90;;;;;;6191598;23;19997;-90
2022/05/05 05:37:15;;;;;;;6.45;3.78;;;11.70;99.90;;;;;;6166224;23;19997;-90
2022/05/05 05:39:43;;;;;;;5.50;3.33;;;11.70;99.90;;;;;;6167391;23;20001;-90
2022/05/05 05:42:14;;;;;;;6.10;3.08;;;11.80;99.90;;;;;;6194849;23;20005;-90
2022/05/05 05:44:40;;;;;;;7.65;3.83;;;11.90;99.90;;;;;;6167887;23;20012;-91
2022/05/05 05:47:12;;;;;;;7.75;4.03;;;11.90;99.90;;;;;;6167183;23;20073;-91
2022/05/05 05:49:43;;;;;;;8.13;3.97;;;11.80;99.90;;;;;;6168944;23;20005;-91
2022/05/05 05:52:15;;;;;;;6.75;3.85;;;12.00;99.90;;;;;;6167663;23;20016;-90
2022/05/05 05:54:41;;;;;;;6.05;3.53;;;12.00;99.90;;;;;;6168988;23;20005;-91
2022/05/05 05:57:09;;;;;;;6.20;3.75;;;12.10;99.90;;;;;;6168758;23;20454;-91
2022/05/05 05:59:37;;;;;;;8.68;3.75;;;12.10;99.90;;;;;;6167651;23;20052;-90
2022/05/05 06:04:53;;;;;;;5.40;3.00;;;12.20;99.90;;;;;;6192118;23;20027;-89
2022/05/05 06:07:21;;;;;;;5.93;3.20;;;12.20;99.90;;;;;;6167953;23;20012;-90
2022/05/05 06:09:47;;;;;;;6.47;3.53;;;12.20;99.90;;;;;;6167472;23;20445;-89
2022/05/05 06:12:13;;;;;;;7.38;4.07;;;12.10;99.90;;;;;;6165944;23;20005;-90
2022/05/05 06:14:41;;;;;;;7.65;3.75;;;12.10;99.90;;;;;;6166030;23;20557;-90
2022/05/05 06:17:07;;;;;;;6.30;3.35;;;12.10;99.90;;;;;;6167037;23;20033;-92
2022/05/05 06:19:36;;;;;;;6.45;3.65;;;12.10;99.90;;;;;;6169334;23;20005;-92
2022/05/05 06:22:05;;;;;;;6.60;4.00;;;12.10;99.90;;;;;;6169751;23;20013;-91
2022/05/05 06:24:36;;;;;;;7.00;4.10;;;12.20;99.90;;;;;;6167431;23;20432;-90
2022/05/05 06:27:10;;;;;;;8.98;3.97;;;12.20;99.90;;;;;;6167884;23;20009;-90
2022/05/05 06:29:39;;;;;;;6.95;4.28;;;12.30;99.90;;;;;;6169044;23;20011;-91
2022/05/05 06:32:11;;;;;;;6.88;3.63;;;12.30;99.90;;;;;;6168663;23;20088;-91
2022/05/05 06:34:43;;;;;;;5.78;3.38;;;12.50;99.90;;;;;;6168134;23;20013;-91
2022/05/05 06:37:17;;;;;;;6.15;3.20;;;12.50;99.90;;;;;;6166071;23;20007;-91
2022/05/05 06:39:45;;;;;;;6.30;3.67;;;12.60;99.90;;;;;;6174017;23;20027;-92
2022/05/05 06:42:14;;;;;;;5.68;2.97;;;12.70;99.90;;;;;;6172562;23;20001;-91
2022/05/05 06:44:41;;;;;;;5.78;3.05;;;12.70;99.90;;;;;;6170783;23;20446;-91
2022/05/05 06:47:10;;;;;;;6.47;3.20;;;12.90;99.90;;;;;;6172002;23;20028;-91
2022/05/05 06:49:36;;;;;;;5.90;3.08;;;12.90;99.90;;;;;;6180629;23;20055;-93
2022/05/05 06:52:09;;;;;;;4.97;3.20;;;12.90;99.90;;;;;;6166503;23;21655;-91
2022/05/05 06:54:43;;;;;;;7.28;4.00;;;13.00;99.90;;;;;;6169604;23;20099;-91
2022/05/05 10:24:10;;;;;;;;;;;;;;;;;;;;;
2022/05/05 11:30:31;;;;;;;15.10;8.68;;;14.60;99.90;;;;;;6164036;23;20036;-87
2022/05/05 11:40:42;;;;;;;15.30;7.97;;;14.90;99.90;;;;;;6119667;23;20017;-86
2022/05/05 11:46:31;;;;;;;11.68;6.78;;;14.90;99.90;;;;;;6209234;23;20031;-87
2022/05/05 11:49:14;;;;;;;11.60;7.70;;;15.00;99.90;;;;;;6192620;23;19999;-86
2022/05/05 11:51:56;;;;;;;14.38;8.63;;;15.10;99.90;;;;;;6200513;23;20012;-86
2022/05/05 11:54:32;;;;;;;12.50;8.27;;;15.20;99.90;;;;;;6158099;23;20033;-85
2022/05/05 11:57:15;;;;;;;12.18;7.90;;;15.20;99.90;;;;;;6125316;23;20080;-86
2022/05/05 12:03:15;;;;;;;11.23;7.75;;;15.30;99.90;;;;;;6153669;23;20061;-87
2022/05/05 12:06:03;;;;;;;;;;;;;;;;;;;;;
2022/05/05 12:08:37;;;;;;;12.10;8.00;;;15.30;99.90;;;;;;6187934;23;20029;-89
2022/05/05 12:14:53;;;;;;;12.73;6.95;;;15.30;99.90;;;;;;6079964;23;20013;-86
2022/05/05 12:18:17;;;;;;;13.60;7.70;;;15.20;99.90;;;;;;6157984;23;20005;-88
2022/05/05 12:21:11;;;;;;;11.68;6.85;;;15.20;99.90;;;;;;6129975;23;20006;-88
2022/05/05 12:27:22;;;;;;;11.20;7.10;;;15.20;99.90;;;;;;6182144;23;20630;-88
2022/05/05 12:29:49;;;;;;;11.60;7.20;;;15.40;99.90;;;;;;6160069;23;20024;-89
2022/05/05 12:35:23;;;;;;;11.48;7.57;;;15.60;99.90;;;;;;6187738;22;20013;-89
2022/05/05 12:38:10;;;;;;;11.48;7.18;;;15.60;99.90;;;;;;6189298;23;20417;-88
2022/05/05 12:41:16;;;;;;;;;;;;;;;;;;;;;
2022/05/05 12:44:15;;;;;;;;;;;;;;;;;;;;;
2022/05/05 12:51:33;;;;;;;12.25;7.95;;;16.20;99.90;;;;;;6060983;23;20021;-90
2022/05/05 13:00:58;;;;;;;10.38;6.93;;;16.60;99.90;;;;;;6160664;23;20372;-90
2022/05/05 13:14:36;;;;;;;11.57;7.10;;;16.80;99.90;;;;;;6151972;23;20029;-89
2022/05/05 13:17:45;;;;;;;12.82;6.80;;;16.90;99.90;;;;;;6160526;23;20014;-89
2022/05/05 13:37:02;;;;;;;11.00;6.30;;;18.40;99.90;;;;;;6191485;23;20028;-88
2022/05/05 13:39:30;;;;;;;10.90;6.97;;;18.40;99.90;;;;;;6208511;22;20008;-87
2022/05/05 13:41:58;;;;;;;10.75;6.40;;;18.30;99.90;;;;;;6186444;23;20008;-88
2022/05/05 13:44:27;;;;;;;10.75;6.25;;;18.50;99.90;;;;;;6187723;23;20013;-90
2022/05/05 13:46:52;;;;;;;10.70;6.57;;;18.30;99.90;;;;;;6183639;23;20008;-88
2022/05/05 13:49:18;;;;;;;9.82;6.15;;;18.40;99.90;;;;;;6214242;23;20051;-88
2022/05/05 13:51:44;;;;;;;11.52;6.60;;;18.40;99.90;;;;;;6187258;23;20008;-88
2022/05/05 13:54:09;;;;;;;8.88;5.78;;;18.40;99.90;;;;;;6186638;23;20015;-87
2022/05/05 13:56:38;;;;;;;10.23;5.85;;;18.30;99.90;;;;;;6213101;23;20019;-89
2022/05/05 13:59:08;;;;;;;10.75;6.30;;;18.40;99.90;;;;;;6187009;23;20031;-88
2022/05/05 14:01:36;;;;;;;9.80;5.85;;;18.40;99.90;;;;;;6213905;23;20118;-88
2022/05/05 14:04:02;;;;;;;12.27;6.20;;;18.70;99.90;;;;;;6183765;23;20055;-88
2022/05/05 14:06:29;;;;;;;8.73;5.40;;;19.00;99.90;;;;;;6185091;23;20034;-88
2022/05/05 14:14:24;;;;;;;13.45;6.38;;;19.80;99.90;;;;;;6212949;23;20407;-89
2022/05/05 14:16:51;;;;;;;10.82;6.15;;;19.80;99.90;;;;;;6186699;23;20406;-87
2022/05/05 14:19:26;;;;;;;12.13;6.35;;;20.00;99.90;;;;;;6214705;23;20008;-88
2022/05/05 14:21:51;;;;;;;9.73;6.40;;;20.00;99.90;;;;;;6187631;23;20004;-88
2022/05/05 14:24:17;;;;;;;9.88;6.20;;;20.10;99.90;;;;;;6187208;23;20016;-88
2022/05/05 14:26:47;;;;;;;10.48;6.05;;;20.40;99.90;;;;;;6187059;23;20588;-88
2022/05/05 14:29:13;;;;;;;12.35;5.97;;;20.40;99.90;;;;;;6187148;23;20004;-87
2022/05/05 14:31:41;;;;;;;9.48;5.43;;;20.70;99.90;;;;;;6186765;23;20087;-88
2022/05/05 14:34:06;;;;;;;11.02;5.63;;;20.60;99.90;;;;;;6211471;23;20001;-87
2022/05/05 14:36:32;;;;;;;9.18;5.15;;;20.50;99.90;;;;;;6210585;23;20034;-87
2022/05/05 14:39:00;;;;;;;8.13;4.88;;;20.50;99.90;;;;;;6185854;23;20017;-88
2022/05/05 14:41:26;;;;;;;9.07;5.35;;;20.40;99.90;;;;;;6213418;23;20072;-88
2022/05/05 14:43:52;;;;;;;8.93;5.75;;;20.20;99.90;;;;;;6175645;23;20032;-87
2022/05/05 14:46:19;;;;;;;8.32;5.18;;;20.20;99.90;;;;;;6179055;23;20039;-88
2022/05/05 14:48:44;;;;;;;11.05;5.57;;;19.80;99.90;;;;;;6185695;23;20340;-87
2022/05/05 14:51:10;;;;;;;8.55;5.15;;;19.50;99.90;;;;;;6185867;23;20009;-87
2022/05/05 14:54:04;;;;;;;8.63;5.75;;;19.30;99.90;;;;;;6216562;23;20010;-88
2022/05/05 14:56:30;;;;;;;11.60;5.75;;;19.10;99.90;;;;;;6200580;23;20155;-87
2022/05/05 14:58:56;;;;;;;10.27;5.93;;;19.00;99.90;;;;;;6186708;23;20032;-87
2022/05/05 15:01:21;;;;;;;10.10;6.32;;;18.90;99.90;;;;;;6185119;23;20018;-87
2022/05/05 15:03:49;;;;;;;10.45;5.75;;;19.20;99.90;;;;;;6185551;23;20087;-87
2022/05/05 15:06:16;;;;;;;8.63;5.60;;;19.60;99.90;;;;;;6186245;23;20008;-88
2022/05/05 15:08:41;;;;;;;11.90;6.40;;;19.40;99.90;;;;;;6186820;23;20005;-87
2022/05/05 15:11:07;;;;;;;9.93;6.35;;;19.50;99.90;;;;;;6186841;23;20433;-87
2022/05/05 15:13:32;;;;;;;9.35;5.75;;;19.60;99.90;;;;;;6187037;23;20010;-88
2022/05/05 15:15:58;;;;;;;10.00;6.22;;;19.60;99.90;;;;;;6185653;23;20009;-87
2022/05/05 15:18:24;;;;;;;9.65;5.72;;;19.60;99.90;;;;;;6185705;23;20001;-87
2022/05/05 15:20:49;;;;;;;9.68;5.80;;;19.60;99.90;;;;;;6213247;23;20420;-87
2022/05/05 15:23:15;;;;;;;9.90;5.82;;;19.10;99.90;;;;;;6186912;23;20107;-87
2022/05/05 15:25:41;;;;;;;11.45;6.22;;;18.60;99.90;;;;;;6212302;23;20388;-87
2022/05/05 15:28:06;;;;;;;11.48;6.57;;;18.10;99.90;;;;;;6186365;23;20004;-87
2022/05/05 15:30:32;;;;;;;11.70;7.40;;;18.00;99.90;;;;;;6186104;23;20039;-87
2022/05/05 15:32:58;;;;;;;13.88;7.20;;;17.70;99.90;;;;;;6213609;23;20008;-87
2022/05/05 15:35:25;;;;;;;12.48;7.68;;;17.30;99.90;;;;;;6185765;23;19997;-87
2022/05/05 15:37:51;;;;;;;13.90;8.32;;;17.20;99.90;;;;;;6212403;23;20084;-85
2022/05/05 15:40:18;;;;;;;14.73;8.10;;;17.00;99.90;;;;;;6213042;23;20020;-86
2022/05/05 15:42:44;;;;;;;17.48;8.93;;;16.90;99.90;;;;;;6212268;23;20024;-86
2022/05/05 15:45:11;;;;;;;16.05;8.70;;;17.00;99.90;;;;;;6185627;23;20008;-85
2022/05/05 15:47:38;;;;;;;14.38;8.18;;;16.90;99.90;;;;;;6213099;23;20008;-86
2022/05/05 15:50:10;;;;;;;13.32;8.82;;;17.20;99.90;;;;;;6195671;23;20022;-87
2022/05/05 15:52:46;;;;;;;13.20;7.90;;;17.30;99.90;;;;;;6215075;23;20005;-86
2022/05/05 15:55:19;;;;;;;14.88;7.93;;;17.30;99.90;;;;;;6215408;23;20052;-88
2022/05/05 15:57:50;;;;;;;14.43;8.63;;;17.40;99.90;;;;;;6240409;23;20029;-86
2022/05/05 16:00:16;;;;;;;16.17;8.82;;;17.60;99.90;;;;;;6199873;23;20060;-84
2022/05/05 16:02:46;;;;;;;15.02;9.23;;;17.20;99.90;;;;;;6219822;23;20016;-85
2022/05/05 16:05:14;;;;;;;13.27;7.72;;;17.10;99.90;;;;;;6214589;23;20075;-86
2022/05/05 16:07:40;;;;;;;15.68;8.43;;;17.10;99.90;;;;;;6185785;23;20023;-86
2022/05/05 16:10:07;;;;;;;13.80;8.15;;;16.90;99.90;;;;;;6188170;23;20372;-87
2022/05/05 16:12:33;;;;;;;15.60;8.57;;;17.00;99.90;;;;;;6214964;23;20016;-85
2022/05/05 16:14:59;;;;;;;16.77;9.07;;;17.00;99.90;;;;;;6214447;23;20020;-87
2022/05/05 16:17:25;;;;;;;14.85;9.38;;;16.90;99.90;;;;;;6211523;23;20383;-87
2022/05/05 16:19:51;;;;;;;18.50;9.15;;;16.90;99.90;;;;;;6185003;23;20004;-87
2022/05/05 16:22:17;;;;;;;16.73;9.18;;;16.80;99.90;;;;;;6187076;23;20066;-87
2022/05/05 16:30:11;;;;;;;16.92;9.48;;;16.50;99.90;;;;;;6213050;23;20015;-86
2022/05/05 16:32:46;;;;;;;16.75;9.18;;;16.60;99.90;;;;;;6217346;23;20024;-86
2022/05/05 16:35:14;;;;;;;16.38;9.02;;;16.50;99.90;;;;;;6212923;23;19997;-87
2022/05/05 16:37:41;;;;;;;14.55;8.65;;;16.40;99.90;;;;;;6217728;23;20670;-86
2022/05/05 16:40:10;;;;;;;16.98;9.00;;;16.40;99.90;;;;;;6208546;23;20467;-87
2022/05/05 16:42:35;;;;;;;15.13;9.32;;;16.30;99.90;;;;;;6214733;23;20431;-87
2022/05/05 16:45:01;;;;;;;18.20;9.25;;;16.30;99.90;;;;;;6185804;23;20074;-88
2022/05/05 16:47:27;;;;;;;16.05;9.45;;;16.20;99.90;;;;;;6212425;23;20008;-87
2022/05/05 16:49:53;;;;;;;18.38;9.50;;;16.10;99.90;;;;;;6185776;23;20051;-87
2022/05/05 16:52:20;;;;;;;16.50;8.63;;;15.90;99.90;;;;;;6187133;23;20000;-87
2022/05/05 16:54:45;;;;;;;17.02;9.02;;;15.90;99.90;;;;;;6188262;23;20452;-88
2022/05/05 16:57:11;;;;;;;15.85;9.27;;;15.80;99.90;;;;;;6213013;23;20058;-88
2022/05/05 16:59:37;;;;;;;16.52;8.85;;;15.70;99.90;;;;;;6187031;23;20000;-88
2022/05/05 17:02:06;;;;;;;15.73;9.13;;;15.50;99.90;;;;;;6190938;23;20092;-89
2022/05/05 17:04:32;;;;;;;15.00;8.95;;;15.70;99.90;;;;;;6232928;23;20035;-88
2022/05/05 17:06:58;;;;;;;16.08;8.90;;;15.60;99.90;;;;;;6187928;23;20009;-88
2022/05/05 17:09:24;;;;;;;17.40;9.23;;;15.50;99.90;;;;;;6186876;23;20008;-88
2022/05/05 17:11:49;;;;;;;18.55;9.45;;;15.40;99.90;;;;;;6187738;23;20036;-88
2022/05/05 17:14:15;;;;;;;13.82;8.10;;;15.20;99.90;;;;;;6186597;23;20505;-88
2022/05/05 17:16:41;;;;;;;13.93;8.02;;;15.40;99.90;;;;;;6185866;23;20670;-87
2022/05/05 17:19:06;;;;;;;15.48;8.25;;;15.30;99.90;;;;;;6213283;23;20004;-88
2022/05/05 17:21:32;;;;;;;15.35;8.18;;;15.20;99.90;;;;;;6214859;23;20083;-87
2022/05/05 17:23:58;;;;;;;13.23;8.27;;;15.10;99.90;;;;;;6187508;23;20009;-87
2022/05/05 17:26:23;;;;;;;13.85;8.02;;;15.10;99.90;;;;;;6212401;23;20008;-86
2022/05/05 17:28:49;;;;;;;15.57;8.13;;;15.00;99.90;;;;;;6186374;23;20019;-87
2022/05/05 17:31:15;;;;;;;18.08;7.82;;;15.10;99.90;;;;;;6186498;23;20009;-87
2022/05/05 17:33:40;;;;;;;12.80;7.25;;;15.10;99.90;;;;;;6209698;23;20146;-83
2022/05/05 17:36:06;;;;;;;15.57;6.97;;;14.90;99.90;;;;;;6188545;23;20450;-85
2022/05/05 17:38:32;;;;;;;13.48;6.50;;;14.80;99.90;;;;;;6184590;23;20013;-86
2022/05/05 17:40:58;;;;;;;12.38;7.22;;;14.70;99.90;;;;;;6182439;23;20134;-86
2022/05/05 17:43:24;;;;;;;12.43;6.20;;;14.80;99.90;;;;;;6182413;23;20020;-85
2022/05/05 17:51:19;;;;;;;13.30;6.70;;;14.60;99.90;;;;;;6185542;23;20015;-87
2022/05/05 17:53:45;;;;;;;12.63;6.25;;;14.50;99.90;;;;;;6183382;23;20056;-86
2022/05/05 17:56:11;;;;;;;10.88;6.40;;;14.40;99.90;;;;;;6184390;23;20005;-86
2022/05/05 17:58:36;;;;;;;13.13;6.85;;;14.40;99.90;;;;;;6184262;23;20004;-86
2022/05/05 18:01:02;;;;;;;12.27;6.07;;;14.40;99.90;;;;;;6184700;23;20071;-87
2022/05/05 18:03:28;;;;;;;11.02;5.80;;;14.20;99.90;;;;;;6184986;23;20012;-86
2022/05/05 18:05:54;;;;;;;11.00;6.05;;;14.30;99.90;;;;;;6184273;23;20005;-85
2022/05/05 18:08:20;;;;;;;11.32;5.65;;;14.20;99.90;;;;;;6183742;23;20005;-86
2022/05/05 18:10:46;;;;;;;11.55;6.95;;;14.10;99.90;;;;;;6184118;23;20036;-86
2022/05/05 18:13:14;;;;;;;10.93;6.15;;;14.20;99.90;;;;;;6182170;23;20005;-87
2022/05/05 18:15:40;;;;;;;11.40;6.53;;;14.00;99.90;;;;;;6184583;23;20001;-85
2022/05/05 18:18:06;;;;;;;11.13;5.78;;;14.00;99.90;;;;;;6182032;23;20009;-86
2022/05/05 18:20:33;;;;;;;11.02;5.82;;;14.00;99.90;;;;;;6183364;23;20427;-87
2022/05/05 18:22:59;;;;;;;11.45;5.82;;;14.00;99.90;;;;;;6181865;23;20443;-85
2022/05/05 18:25:25;;;;;;;13.90;6.40;;;13.90;99.90;;;;;;6183304;23;20009;-85
2022/05/05 18:27:50;;;;;;;11.38;5.55;;;13.90;99.90;;;;;;6183603;23;20267;-86
2022/05/05 18:30:16;;;;;;;9.70;5.15;;;13.80;99.90;;;;;;6184044;23;20001;-86
2022/05/05 18:32:42;;;;;;;10.13;5.57;;;13.80;99.90;;;;;;6180379;23;20008;-85
2022/05/05 18:35:09;;;;;;;11.68;5.75;;;13.90;99.90;;;;;;6182813;23;20001;-88
2022/05/05 18:37:35;;;;;;;14.02;5.95;;;13.70;99.90;;;;;;6185054;23;20088;-88
2022/05/05 18:40:02;;;;;;;13.43;5.72;;;13.80;99.90;;;;;;6213396;23;20005;-88
2022/05/05 18:42:39;;;;;;;10.05;5.63;;;13.70;99.90;;;;;;6186868;23;20470;-87
2022/05/05 18:45:06;;;;;;;12.95;5.82;;;13.70;99.90;;;;;;6213067;23;20367;-88
2022/05/05 18:47:34;;;;;;;9.82;5.05;;;13.70;99.90;;;;;;6186543;23;20004;-89
2022/05/05 18:50:02;;;;;;;9.43;5.18;;;13.80;99.90;;;;;;6188149;23;20023;-89
2022/05/05 18:52:27;;;;;;;10.50;5.15;;;13.60;99.90;;;;;;6213965;23;20428;-89
2022/05/05 18:54:53;;;;;;;8.90;5.47;;;13.60;99.90;;;;;;6187813;23;20011;-89
2022/05/05 18:57:19;;;;;;;8.48;4.63;;;13.50;99.90;;;;;;6214558;23;20395;-89